sensor_id;sensor_type;location;lat;lon;timestamp;temperature;humidity
70421;SHT31;57848;51.938;15.520;2023-10-19T00:00:49;6.24;81.40
70421;SHT31;57848;51.938;15.520;2023-10-19T00:03:19;6.17;81.47
70421;SHT31;57848;51.938;15.520;2023-10-19T00:05:45;6.13;81.70
70421;SHT31;57848;51.938;15.520;2023-10-19T00:08:11;6.13;81.98
70421;SHT31;57848;51.938;15.520;2023-10-19T00:10:43;6.10;81.84
70421;SHT31;57848;51.938;15.520;2023-10-19T00:13:09;6.14;81.79
70421;SHT31;57848;51.938;15.520;2023-10-19T00:15:40;6.11;82.08
70421;SHT31;57848;51.938;15.520;2023-10-19T00:18:08;6.00;82.34
70421;SHT31;57848;51.938;15.520;2023-10-19T00:20:48;6.00;82.30
70421;SHT31;57848;51.938;15.520;2023-10-19T00:23:32;6.06;82.29
70421;SHT31;57848;51.938;15.520;2023-10-19T00:25:59;6.03;82.22
70421;SHT31;57848;51.938;15.520;2023-10-19T00:28:25;5.92;82.66
70421;SHT31;57848;51.938;15.520;2023-10-19T00:30:52;5.94;82.75
70421;SHT31;57848;51.938;15.520;2023-10-19T00:33:21;5.86;83.04
70421;SHT31;57848;51.938;15.520;2023-10-19T00:35:48;5.87;83.19
70421;SHT31;57848;51.938;15.520;2023-10-19T00:38:24;5.85;83.22
70421;SHT31;57848;51.938;15.520;2023-10-19T00:40:55;5.82;83.42
70421;SHT31;57848;51.938;15.520;2023-10-19T00:43:30;5.82;83.23
70421;SHT31;57848;51.938;15.520;2023-10-19T00:46:05;5.83;83.33
70421;SHT31;57848;51.938;15.520;2023-10-19T00:48:58;5.79;83.37
70421;SHT31;57848;51.938;15.520;2023-10-19T00:51:29;5.86;83.34
70421;SHT31;57848;51.938;15.520;2023-10-19T00:54:16;5.89;83.15
70421;SHT31;57848;51.938;15.520;2023-10-19T00:56:47;5.82;83.31
70421;SHT31;57848;51.938;15.520;2023-10-19T00:59:21;5.86;83.20
70421;SHT31;57848;51.938;15.520;2023-10-19T01:01:51;5.82;83.40
70421;SHT31;57848;51.938;15.520;2023-10-19T01:04:19;5.80;83.28
70421;SHT31;57848;51.938;15.520;2023-10-19T01:06:49;5.72;83.36
70421;SHT31;57848;51.938;15.520;2023-10-19T01:09:31;5.77;83.44
70421;SHT31;57848;51.938;15.520;2023-10-19T01:12:04;5.83;83.27
70421;SHT31;57848;51.938;15.520;2023-10-19T01:15:10;5.79;83.18
70421;SHT31;57848;51.938;15.520;2023-10-19T01:17:43;5.83;83.45
70421;SHT31;57848;51.938;15.520;2023-10-19T01:20:11;5.89;83.25
70421;SHT31;57848;51.938;15.520;2023-10-19T01:23:02;5.85;83.26
70421;SHT31;57848;51.938;15.520;2023-10-19T01:28:25;5.77;83.68
70421;SHT31;57848;51.938;15.520;2023-10-19T01:30:54;5.73;83.66
70421;SHT31;57848;51.938;15.520;2023-10-19T01:33:20;5.69;84.04
70421;SHT31;57848;51.938;15.520;2023-10-19T01:35:49;5.70;83.98
70421;SHT31;57848;51.938;15.520;2023-10-19T01:38:33;5.70;83.97
70421;SHT31;57848;51.938;15.520;2023-10-19T01:41:00;5.69;83.97
70421;SHT31;57848;51.938;15.520;2023-10-19T01:43:29;5.70;83.91
70421;SHT31;57848;51.938;15.520;2023-10-19T01:45:58;5.67;84.14
70421;SHT31;57848;51.938;15.520;2023-10-19T01:48:29;5.67;84.07
70421;SHT31;57848;51.938;15.520;2023-10-19T01:51:05;5.69;84.08
70421;SHT31;57848;51.938;15.520;2023-10-19T01:53:33;5.70;83.96
70421;SHT31;57848;51.938;15.520;2023-10-19T01:56:02;5.69;83.73
70421;SHT31;57848;51.938;15.520;2023-10-19T01:58:33;5.73;83.72
70421;SHT31;57848;51.938;15.520;2023-10-19T02:01:03;5.73;83.57
70421;SHT31;57848;51.938;15.520;2023-10-19T02:03:35;5.76;83.37
70421;SHT31;57848;51.938;15.520;2023-10-19T02:06:02;5.75;83.54
70421;SHT31;57848;51.938;15.520;2023-10-19T02:08:49;5.73;83.54
70421;SHT31;57848;51.938;15.520;2023-10-19T02:11:24;5.76;83.36
70421;SHT31;57848;51.938;15.520;2023-10-19T02:13:52;5.83;83.31
70421;SHT31;57848;51.938;15.520;2023-10-19T02:16:18;5.80;83.26
70421;SHT31;57848;51.938;15.520;2023-10-19T02:18:51;5.75;83.63
70421;SHT31;57848;51.938;15.520;2023-10-19T02:21:18;5.73;83.99
70421;SHT31;57848;51.938;15.520;2023-10-19T02:23:48;5.73;83.89
70421;SHT31;57848;51.938;15.520;2023-10-19T02:26:24;5.66;83.98
70421;SHT31;57848;51.938;15.520;2023-10-19T02:28:53;5.59;84.25
70421;SHT31;57848;51.938;15.520;2023-10-19T02:31:22;5.67;84.06
70421;SHT31;57848;51.938;15.520;2023-10-19T02:33:51;5.54;84.44
70421;SHT31;57848;51.938;15.520;2023-10-19T02:36:20;5.56;84.42
70421;SHT31;57848;51.938;15.520;2023-10-19T02:38:46;5.56;84.46
70421;SHT31;57848;51.938;15.520;2023-10-19T02:41:17;5.52;84.55
70421;SHT31;57848;51.938;15.520;2023-10-19T02:43:43;5.54;84.50
70421;SHT31;57848;51.938;15.520;2023-10-19T02:46:13;5.52;84.71
70421;SHT31;57848;51.938;15.520;2023-10-19T02:48:39;5.58;84.50
70421;SHT31;57848;51.938;15.520;2023-10-19T02:51:13;5.51;84.68
70421;SHT31;57848;51.938;15.520;2023-10-19T02:53:41;5.48;84.92
70421;SHT31;57848;51.938;15.520;2023-10-19T02:56:15;5.52;84.62
70421;SHT31;57848;51.938;15.520;2023-10-19T02:58:43;5.52;84.73
70421;SHT31;57848;51.938;15.520;2023-10-19T03:01:18;5.54;84.71
70421;SHT31;57848;51.938;15.520;2023-10-19T03:03:51;5.52;84.75
70421;SHT31;57848;51.938;15.520;2023-10-19T03:06:22;5.49;84.69
70421;SHT31;57848;51.938;15.520;2023-10-19T03:08:49;5.54;84.33
70421;SHT31;57848;51.938;15.520;2023-10-19T03:11:23;5.60;84.08
70421;SHT31;57848;51.938;15.520;2023-10-19T03:13:50;5.63;84.16
70421;SHT31;57848;51.938;15.520;2023-10-19T03:16:21;5.75;83.51
70421;SHT31;57848;51.938;15.520;2023-10-19T03:18:47;5.75;83.46
70421;SHT31;57848;51.938;15.520;2023-10-19T03:21:12;5.66;83.64
70421;SHT31;57848;51.938;15.520;2023-10-19T03:23:37;5.79;83.28
70421;SHT31;57848;51.938;15.520;2023-10-19T03:26:03;5.79;83.05
70421;SHT31;57848;51.938;15.520;2023-10-19T03:28:48;5.86;83.05
70421;SHT31;57848;51.938;15.520;2023-10-19T03:31:14;5.82;82.98
70421;SHT31;57848;51.938;15.520;2023-10-19T03:33:46;5.87;82.64
70421;SHT31;57848;51.938;15.520;2023-10-19T03:36:22;5.86;82.67
70421;SHT31;57848;51.938;15.520;2023-10-19T03:38:49;5.87;82.45
70421;SHT31;57848;51.938;15.520;2023-10-19T03:41:21;5.92;82.46
70421;SHT31;57848;51.938;15.520;2023-10-19T03:43:49;5.89;82.67
70421;SHT31;57848;51.938;15.520;2023-10-19T03:46:16;5.90;82.62
70421;SHT31;57848;51.938;15.520;2023-10-19T03:48:55;5.86;82.58
70421;SHT31;57848;51.938;15.520;2023-10-19T03:51:26;5.85;82.55
70421;SHT31;57848;51.938;15.520;2023-10-19T03:53:52;5.85;82.85
70421;SHT31;57848;51.938;15.520;2023-10-19T03:56:24;5.87;82.65
70421;SHT31;57848;51.938;15.520;2023-10-19T03:58:50;5.77;82.56
70421;SHT31;57848;51.938;15.520;2023-10-19T04:01:17;5.73;82.98
70421;SHT31;57848;51.938;15.520;2023-10-19T04:03:45;5.73;82.80
70421;SHT31;57848;51.938;15.520;2023-10-19T04:06:10;5.75;82.87
70421;SHT31;57848;51.938;15.520;2023-10-19T04:08:41;5.75;82.66
70421;SHT31;57848;51.938;15.520;2023-10-19T04:11:16;5.80;82.64
70421;SHT31;57848;51.938;15.520;2023-10-19T04:13:47;5.82;82.69
70421;SHT31;57848;51.938;15.520;2023-10-19T04:16:13;5.76;82.60
70421;SHT31;57848;51.938;15.520;2023-10-19T04:18:39;5.83;82.41
70421;SHT31;57848;51.938;15.520;2023-10-19T04:21:09;5.82;82.43
70421;SHT31;57848;51.938;15.520;2023-10-19T04:23:34;5.83;82.40
70421;SHT31;57848;51.938;15.520;2023-10-19T04:26:00;5.73;82.51
70421;SHT31;57848;51.938;15.520;2023-10-19T04:28:31;5.82;82.44
70421;SHT31;57848;51.938;15.520;2023-10-19T04:31:03;5.82;82.29
70421;SHT31;57848;51.938;15.520;2023-10-19T04:33:30;5.85;82.19
70421;SHT31;57848;51.938;15.520;2023-10-19T04:35:55;5.85;82.15
70421;SHT31;57848;51.938;15.520;2023-10-19T04:38:22;5.96;82.11
70421;SHT31;57848;51.938;15.520;2023-10-19T04:40:47;5.89;82.36
70421;SHT31;57848;51.938;15.520;2023-10-19T04:43:13;5.87;82.25
70421;SHT31;57848;51.938;15.520;2023-10-19T04:45:41;5.87;82.52
70421;SHT31;57848;51.938;15.520;2023-10-19T04:48:07;5.85;82.77
70421;SHT31;57848;51.938;15.520;2023-10-19T04:50:32;5.80;82.86
70421;SHT31;57848;51.938;15.520;2023-10-19T04:52:57;5.77;82.77
70421;SHT31;57848;51.938;15.520;2023-10-19T04:55:23;5.73;83.01
70421;SHT31;57848;51.938;15.520;2023-10-19T04:57:48;5.72;82.85
70421;SHT31;57848;51.938;15.520;2023-10-19T05:00:14;5.73;83.08
70421;SHT31;57848;51.938;15.520;2023-10-19T05:02:41;5.75;83.10
70421;SHT31;57848;51.938;15.520;2023-10-19T05:05:06;5.76;83.28
70421;SHT31;57848;51.938;15.520;2023-10-19T05:07:32;5.70;83.34
70421;SHT31;57848;51.938;15.520;2023-10-19T05:09:58;5.69;83.34
70421;SHT31;57848;51.938;15.520;2023-10-19T05:12:24;5.62;83.50
70421;SHT31;57848;51.938;15.520;2023-10-19T05:14:50;5.60;83.38
70421;SHT31;57848;51.938;15.520;2023-10-19T05:17:15;5.70;83.27
70421;SHT31;57848;51.938;15.520;2023-10-19T05:19:41;5.65;83.24
70421;SHT31;57848;51.938;15.520;2023-10-19T05:22:08;5.69;83.23
70421;SHT31;57848;51.938;15.520;2023-10-19T05:24:34;5.72;83.30
70421;SHT31;57848;51.938;15.520;2023-10-19T05:27:00;5.73;83.28
70421;SHT31;57848;51.938;15.520;2023-10-19T05:29:26;5.83;83.21
70421;SHT31;57848;51.938;15.520;2023-10-19T05:31:52;5.76;83.26
70421;SHT31;57848;51.938;15.520;2023-10-19T05:34:24;5.82;83.25
70421;SHT31;57848;51.938;15.520;2023-10-19T05:36:52;5.90;83.04
70421;SHT31;57848;51.938;15.520;2023-10-19T05:39:19;5.86;82.94
70421;SHT31;57848;51.938;15.520;2023-10-19T05:41:45;5.86;83.07
70421;SHT31;57848;51.938;15.520;2023-10-19T05:44:11;5.85;83.37
70421;SHT31;57848;51.938;15.520;2023-10-19T05:46:36;5.83;83.49
70421;SHT31;57848;51.938;15.520;2023-10-19T05:49:03;5.94;83.18
70421;SHT31;57848;51.938;15.520;2023-10-19T05:51:30;5.93;83.16
70421;SHT31;57848;51.938;15.520;2023-10-19T05:53:55;5.86;83.20
70421;SHT31;57848;51.938;15.520;2023-10-19T05:56:27;5.92;83.27
70421;SHT31;57848;51.938;15.520;2023-10-19T05:58:52;5.94;83.18
70421;SHT31;57848;51.938;15.520;2023-10-19T06:01:19;6.03;83.23
70421;SHT31;57848;51.938;15.520;2023-10-19T06:03:45;6.03;82.89
70421;SHT31;57848;51.938;15.520;2023-10-19T06:06:10;6.09;83.50
70421;SHT31;57848;51.938;15.520;2023-10-19T06:08:36;6.04;83.05
70421;SHT31;57848;51.938;15.520;2023-10-19T06:11:01;6.10;82.91
70421;SHT31;57848;51.938;15.520;2023-10-19T06:13:26;6.09;82.85
70421;SHT31;57848;51.938;15.520;2023-10-19T06:15:52;6.13;82.73
70421;SHT31;57848;51.938;15.520;2023-10-19T06:18:17;6.17;82.64
70421;SHT31;57848;51.938;15.520;2023-10-19T06:20:46;6.20;82.41
70421;SHT31;57848;51.938;15.520;2023-10-19T06:23:12;6.20;82.59
70421;SHT31;57848;51.938;15.520;2023-10-19T06:25:38;6.20;82.54
70421;SHT31;57848;51.938;15.520;2023-10-19T06:28:04;6.16;82.88
70421;SHT31;57848;51.938;15.520;2023-10-19T06:30:30;6.16;82.90
70421;SHT31;57848;51.938;15.520;2023-10-19T06:32:57;6.16;82.58
70421;SHT31;57848;51.938;15.520;2023-10-19T06:35:26;6.14;82.53
70421;SHT31;57848;51.938;15.520;2023-10-19T06:37:53;6.18;82.86
70421;SHT31;57848;51.938;15.520;2023-10-19T06:40:20;6.21;82.77
70421;SHT31;57848;51.938;15.520;2023-10-19T06:42:48;6.21;82.98
70421;SHT31;57848;51.938;15.520;2023-10-19T06:45:15;6.24;82.74
70421;SHT31;57848;51.938;15.520;2023-10-19T06:47:48;6.28;82.77
70421;SHT31;57848;51.938;15.520;2023-10-19T06:50:17;6.44;82.42
70421;SHT31;57848;51.938;15.520;2023-10-19T06:52:43;6.35;82.50
70421;SHT31;57848;51.938;15.520;2023-10-19T06:55:10;6.37;82.56
70421;SHT31;57848;51.938;15.520;2023-10-19T06:57:44;6.37;82.53
70421;SHT31;57848;51.938;15.520;2023-10-19T07:00:15;6.31;82.42
70421;SHT31;57848;51.938;15.520;2023-10-19T07:02:48;6.42;82.53
70421;SHT31;57848;51.938;15.520;2023-10-19T07:05:14;6.37;82.47
70421;SHT31;57848;51.938;15.520;2023-10-19T07:07:44;6.33;82.65
70421;SHT31;57848;51.938;15.520;2023-10-19T07:10:11;6.35;82.76
70421;SHT31;57848;51.938;15.520;2023-10-19T07:12:45;6.28;82.81
70421;SHT31;57848;51.938;15.520;2023-10-19T07:15:12;6.31;82.71
70421;SHT31;57848;51.938;15.520;2023-10-19T07:17:43;6.41;82.73
70421;SHT31;57848;51.938;15.520;2023-10-19T07:20:09;6.33;82.56
70421;SHT31;57848;51.938;15.520;2023-10-19T07:22:47;6.33;82.73
70421;SHT31;57848;51.938;15.520;2023-10-19T07:25:12;6.45;82.48
70421;SHT31;57848;51.938;15.520;2023-10-19T07:27:38;6.46;82.40
70421;SHT31;57848;51.938;15.520;2023-10-19T07:30:04;6.44;82.52
70421;SHT31;57848;51.938;15.520;2023-10-19T07:32:34;6.52;82.36
70421;SHT31;57848;51.938;15.520;2023-10-19T07:34:59;6.48;82.51
70421;SHT31;57848;51.938;15.520;2023-10-19T07:37:25;6.52;82.59
70421;SHT31;57848;51.938;15.520;2023-10-19T07:39:50;6.56;82.33
70421;SHT31;57848;51.938;15.520;2023-10-19T07:42:17;6.61;82.16
70421;SHT31;57848;51.938;15.520;2023-10-19T07:44:43;6.56;82.28
70421;SHT31;57848;51.938;15.520;2023-10-19T07:47:09;6.61;82.16
70421;SHT31;57848;51.938;15.520;2023-10-19T07:49:38;6.67;82.88
70421;SHT31;57848;51.938;15.520;2023-10-19T07:52:07;6.69;82.69
70421;SHT31;57848;51.938;15.520;2023-10-19T07:54:33;6.76;82.88
70421;SHT31;57848;51.938;15.520;2023-10-19T07:57:01;6.78;82.67
70421;SHT31;57848;51.938;15.520;2023-10-19T07:59:29;6.86;82.69
70421;SHT31;57848;51.938;15.520;2023-10-19T08:01:54;6.81;83.55
70421;SHT31;57848;51.938;15.520;2023-10-19T08:04:19;6.92;83.67
70421;SHT31;57848;51.938;15.520;2023-10-19T08:06:45;6.92;84.04
70421;SHT31;57848;51.938;15.520;2023-10-19T08:09:10;6.96;85.13
70421;SHT31;57848;51.938;15.520;2023-10-19T08:11:36;6.96;84.79
70421;SHT31;57848;51.938;15.520;2023-10-19T08:14:02;6.92;85.37
70421;SHT31;57848;51.938;15.520;2023-10-19T08:16:27;6.95;85.58
70421;SHT31;57848;51.938;15.520;2023-10-19T08:18:52;7.00;85.28
70421;SHT31;57848;51.938;15.520;2023-10-19T08:21:18;7.03;85.76
70421;SHT31;57848;51.938;15.520;2023-10-19T08:23:43;7.06;85.81
70421;SHT31;57848;51.938;15.520;2023-10-19T08:26:10;7.13;86.07
70421;SHT31;57848;51.938;15.520;2023-10-19T08:28:35;7.10;85.81
70421;SHT31;57848;51.938;15.520;2023-10-19T08:31:02;6.99;86.09
70421;SHT31;57848;51.938;15.520;2023-10-19T08:33:28;6.96;86.00
70421;SHT31;57848;51.938;15.520;2023-10-19T08:35:55;6.93;86.27
70421;SHT31;57848;51.938;15.520;2023-10-19T08:38:22;6.88;86.86
70421;SHT31;57848;51.938;15.520;2023-10-19T08:40:49;6.81;87.71
70421;SHT31;57848;51.938;15.520;2023-10-19T08:43:14;6.82;87.35
70421;SHT31;57848;51.938;15.520;2023-10-19T08:45:43;6.84;87.18
70421;SHT31;57848;51.938;15.520;2023-10-19T08:48:08;6.81;87.76
70421;SHT31;57848;51.938;15.520;2023-10-19T08:50:34;6.76;87.88
70421;SHT31;57848;51.938;15.520;2023-10-19T08:53:01;6.78;87.69
70421;SHT31;57848;51.938;15.520;2023-10-19T08:55:28;6.72;88.11
70421;SHT31;57848;51.938;15.520;2023-10-19T08:57:55;6.71;88.72
70421;SHT31;57848;51.938;15.520;2023-10-19T09:00:23;6.64;88.97
70421;SHT31;57848;51.938;15.520;2023-10-19T09:02:51;6.74;88.72
70421;SHT31;57848;51.938;15.520;2023-10-19T09:05:18;6.74;88.74
70421;SHT31;57848;51.938;15.520;2023-10-19T09:07:53;6.82;88.87
70421;SHT31;57848;51.938;15.520;2023-10-19T09:10:27;6.84;89.14
70421;SHT31;57848;51.938;15.520;2023-10-19T09:13:11;6.82;88.79
70421;SHT31;57848;51.938;15.520;2023-10-19T09:15:38;6.79;89.18
70421;SHT31;57848;51.938;15.520;2023-10-19T09:18:15;6.81;89.17
70421;SHT31;57848;51.938;15.520;2023-10-19T09:20:43;6.89;89.31
70421;SHT31;57848;51.938;15.520;2023-10-19T09:23:21;6.91;88.97
70421;SHT31;57848;51.938;15.520;2023-10-19T09:25:50;7.00;89.00
70421;SHT31;57848;51.938;15.520;2023-10-19T09:28:18;7.02;89.71
70421;SHT31;57848;51.938;15.520;2023-10-19T09:30:43;6.97;89.39
70421;SHT31;57848;51.938;15.520;2023-10-19T09:33:09;7.14;88.67
70421;SHT31;57848;51.938;15.520;2023-10-19T09:35:35;7.17;88.58
70421;SHT31;57848;51.938;15.520;2023-10-19T09:38:03;7.14;89.71
70421;SHT31;57848;51.938;15.520;2023-10-19T09:40:31;7.16;89.50
70421;SHT31;57848;51.938;15.520;2023-10-19T09:42:58;7.20;89.97
70421;SHT31;57848;51.938;15.520;2023-10-19T09:45:26;7.19;90.11
70421;SHT31;57848;51.938;15.520;2023-10-19T09:47:54;7.23;89.77
70421;SHT31;57848;51.938;15.520;2023-10-19T09:50:19;7.27;89.68
70421;SHT31;57848;51.938;15.520;2023-10-19T09:52:45;7.30;89.24
70421;SHT31;57848;51.938;15.520;2023-10-19T09:55:32;7.28;89.53
70421;SHT31;57848;51.938;15.520;2023-10-19T09:58:12;7.20;90.16
70421;SHT31;57848;51.938;15.520;2023-10-19T10:00:43;7.19;90.60
70421;SHT31;57848;51.938;15.520;2023-10-19T10:03:42;7.20;89.83
70421;SHT31;57848;51.938;15.520;2023-10-19T10:06:08;7.24;90.34
70421;SHT31;57848;51.938;15.520;2023-10-19T10:08:35;7.19;90.14
70421;SHT31;57848;51.938;15.520;2023-10-19T10:11:25;7.26;90.25
70421;SHT31;57848;51.938;15.520;2023-10-19T10:13:56;7.28;90.31
70421;SHT31;57848;51.938;15.520;2023-10-19T10:16:23;7.27;90.56
70421;SHT31;57848;51.938;15.520;2023-10-19T10:18:50;7.27;90.12
70421;SHT31;57848;51.938;15.520;2023-10-19T10:21:18;7.30;90.18
70421;SHT31;57848;51.938;15.520;2023-10-19T10:23:53;7.28;90.24
70421;SHT31;57848;51.938;15.520;2023-10-19T10:26:21;7.27;90.47
70421;SHT31;57848;51.938;15.520;2023-10-19T10:31:42;7.31;90.69
70421;SHT31;57848;51.938;15.520;2023-10-19T10:34:09;7.34;90.65
70421;SHT31;57848;51.938;15.520;2023-10-19T10:39:29;7.40;90.68
70421;SHT31;57848;51.938;15.520;2023-10-19T10:41:59;7.44;90.75
70421;SHT31;57848;51.938;15.520;2023-10-19T10:44:42;7.47;90.78
70421;SHT31;57848;51.938;15.520;2023-10-19T10:47:09;7.40;91.04
70421;SHT31;57848;51.938;15.520;2023-10-19T10:52:23;7.63;90.66
70421;SHT31;57848;51.938;15.520;2023-10-19T10:54:49;7.67;90.31
70421;SHT31;57848;51.938;15.520;2023-10-19T10:57:14;7.68;90.48
70421;SHT31;57848;51.938;15.520;2023-10-19T10:59:40;7.65;90.66
70421;SHT31;57848;51.938;15.520;2023-10-19T11:02:17;7.58;91.23
70421;SHT31;57848;51.938;15.520;2023-10-19T11:04:44;7.57;91.33
70421;SHT31;57848;51.938;15.520;2023-10-19T11:07:17;7.70;91.17
70421;SHT31;57848;51.938;15.520;2023-10-19T11:09:44;7.71;91.44
70421;SHT31;57848;51.938;15.520;2023-10-19T11:12:11;7.61;91.54
70421;SHT31;57848;51.938;15.520;2023-10-19T11:14:37;7.54;91.61
70421;SHT31;57848;51.938;15.520;2023-10-19T11:17:12;7.67;91.26
70421;SHT31;57848;51.938;15.520;2023-10-19T11:19:40;7.68;91.38
70421;SHT31;57848;51.938;15.520;2023-10-19T11:22:10;7.65;91.53
70421;SHT31;57848;51.938;15.520;2023-10-19T11:24:35;7.75;91.24
70421;SHT31;57848;51.938;15.520;2023-10-19T11:27:05;7.84;91.23
70421;SHT31;57848;51.938;15.520;2023-10-19T11:29:33;7.78;91.45
70421;SHT31;57848;51.938;15.520;2023-10-19T11:32:02;7.73;91.52
70421;SHT31;57848;51.938;15.520;2023-10-19T11:34:28;7.64;91.60
70421;SHT31;57848;51.938;15.520;2023-10-19T11:36:56;7.71;91.74
70421;SHT31;57848;51.938;15.520;2023-10-19T11:39:31;7.68;91.75
70421;SHT31;57848;51.938;15.520;2023-10-19T11:41:56;7.82;91.47
70421;SHT31;57848;51.938;15.520;2023-10-19T11:44:22;7.73;91.40
70421;SHT31;57848;51.938;15.520;2023-10-19T11:46:47;7.73;91.28
70421;SHT31;57848;51.938;15.520;2023-10-19T11:49:13;7.68;91.74
70421;SHT31;57848;51.938;15.520;2023-10-19T11:51:38;7.63;91.98
70421;SHT31;57848;51.938;15.520;2023-10-19T11:54:04;7.73;91.85
70421;SHT31;57848;51.938;15.520;2023-10-19T11:56:31;7.65;92.24
70421;SHT31;57848;51.938;15.520;2023-10-19T11:58:57;7.70;92.00
70421;SHT31;57848;51.938;15.520;2023-10-19T12:01:22;7.60;92.34
70421;SHT31;57848;51.938;15.520;2023-10-19T12:03:47;7.63;92.35
70421;SHT31;57848;51.938;15.520;2023-10-19T12:06:13;7.73;92.21
70421;SHT31;57848;51.938;15.520;2023-10-19T12:08:44;7.71;92.20
70421;SHT31;57848;51.938;15.520;2023-10-19T12:11:09;7.75;92.33
70421;SHT31;57848;51.938;15.520;2023-10-19T12:13:42;7.74;92.39
70421;SHT31;57848;51.938;15.520;2023-10-19T12:16:14;7.85;91.86
70421;SHT31;57848;51.938;15.520;2023-10-19T12:18:46;7.77;92.18
70421;SHT31;57848;51.938;15.520;2023-10-19T12:21:13;7.91;92.06
70421;SHT31;57848;51.938;15.520;2023-10-19T12:23:40;7.74;92.38
70421;SHT31;57848;51.938;15.520;2023-10-19T12:26:06;7.79;92.33
70421;SHT31;57848;51.938;15.520;2023-10-19T12:28:39;7.89;92.35
70421;SHT31;57848;51.938;15.520;2023-10-19T12:31:06;7.89;92.28
70421;SHT31;57848;51.938;15.520;2023-10-19T12:33:34;7.98;92.13
70421;SHT31;57848;51.938;15.520;2023-10-19T12:35:59;7.96;91.78
70421;SHT31;57848;51.938;15.520;2023-10-19T12:38:25;7.98;92.10
70421;SHT31;57848;51.938;15.520;2023-10-19T12:40:51;7.99;91.85
70421;SHT31;57848;51.938;15.520;2023-10-19T12:43:17;7.99;91.75
70421;SHT31;57848;51.938;15.520;2023-10-19T12:45:52;8.06;91.58
70421;SHT31;57848;51.938;15.520;2023-10-19T12:48:21;8.03;92.06
70421;SHT31;57848;51.938;15.520;2023-10-19T12:50:46;8.01;91.79
70421;SHT31;57848;51.938;15.520;2023-10-19T12:53:12;7.96;91.98
70421;SHT31;57848;51.938;15.520;2023-10-19T12:55:39;7.99;92.00
70421;SHT31;57848;51.938;15.520;2023-10-19T12:58:05;7.95;92.43
70421;SHT31;57848;51.938;15.520;2023-10-19T13:00:35;8.02;91.99
70421;SHT31;57848;51.938;15.520;2023-10-19T13:03:07;8.07;92.02
70421;SHT31;57848;51.938;15.520;2023-10-19T13:05:33;8.02;91.99
70421;SHT31;57848;51.938;15.520;2023-10-19T13:07:59;8.06;92.36
70421;SHT31;57848;51.938;15.520;2023-10-19T13:10:28;8.02;92.39
70421;SHT31;57848;51.938;15.520;2023-10-19T13:13:06;8.01;92.28
70421;SHT31;57848;51.938;15.520;2023-10-19T13:15:33;8.02;92.35
70421;SHT31;57848;51.938;15.520;2023-10-19T13:18:00;8.06;92.43
70421;SHT31;57848;51.938;15.520;2023-10-19T13:20:26;8.02;92.76
70421;SHT31;57848;51.938;15.520;2023-10-19T13:22:52;8.06;92.36
70421;SHT31;57848;51.938;15.520;2023-10-19T13:25:18;8.12;92.35
70421;SHT31;57848;51.938;15.520;2023-10-19T13:27:46;8.05;92.82
70421;SHT31;57848;51.938;15.520;2023-10-19T13:30:12;7.96;92.75
70421;SHT31;57848;51.938;15.520;2023-10-19T13:32:37;8.09;92.27
70421;SHT31;57848;51.938;15.520;2023-10-19T13:35:06;8.05;92.34
70421;SHT31;57848;51.938;15.520;2023-10-19T13:37:32;8.10;92.50
70421;SHT31;57848;51.938;15.520;2023-10-19T13:39:57;8.10;92.61
70421;SHT31;57848;51.938;15.520;2023-10-19T13:42:24;8.03;92.75
70421;SHT31;57848;51.938;15.520;2023-10-19T13:44:49;8.03;92.65
70421;SHT31;57848;51.938;15.520;2023-10-19T13:47:14;8.05;92.80
70421;SHT31;57848;51.938;15.520;2023-10-19T13:49:41;8.06;92.90
70421;SHT31;57848;51.938;15.520;2023-10-19T13:52:06;8.10;92.99
70421;SHT31;57848;51.938;15.520;2023-10-19T13:54:34;8.17;92.63
70421;SHT31;57848;51.938;15.520;2023-10-19T13:57:00;8.13;92.43
70421;SHT31;57848;51.938;15.520;2023-10-19T13:59:28;8.09;92.86
70421;SHT31;57848;51.938;15.520;2023-10-19T14:01:53;8.16;92.68
70421;SHT31;57848;51.938;15.520;2023-10-19T14:04:19;8.13;92.83
70421;SHT31;57848;51.938;15.520;2023-10-19T14:06:44;8.12;92.92
70421;SHT31;57848;51.938;15.520;2023-10-19T14:09:12;8.09;93.27
70421;SHT31;57848;51.938;15.520;2023-10-19T14:11:38;8.19;92.87
70421;SHT31;57848;51.938;15.520;2023-10-19T14:14:03;8.25;92.64
70421;SHT31;57848;51.938;15.520;2023-10-19T14:16:29;8.13;92.89
70421;SHT31;57848;51.938;15.520;2023-10-19T14:18:55;8.15;93.14
70421;SHT31;57848;51.938;15.520;2023-10-19T14:21:21;8.13;93.40
70421;SHT31;57848;51.938;15.520;2023-10-19T14:23:48;8.21;93.15
70421;SHT31;57848;51.938;15.520;2023-10-19T14:26:14;8.16;93.48
70421;SHT31;57848;51.938;15.520;2023-10-19T14:28:39;8.21;93.42
70421;SHT31;57848;51.938;15.520;2023-10-19T14:31:06;8.17;93.34
70421;SHT31;57848;51.938;15.520;2023-10-19T14:33:33;8.09;93.64
70421;SHT31;57848;51.938;15.520;2023-10-19T14:36:01;8.15;93.67
70421;SHT31;57848;51.938;15.520;2023-10-19T14:38:26;8.12;93.80
70421;SHT31;57848;51.938;15.520;2023-10-19T14:40:52;8.09;94.12
70421;SHT31;57848;51.938;15.520;2023-10-19T14:43:18;8.15;94.17
70421;SHT31;57848;51.938;15.520;2023-10-19T14:45:44;8.13;94.17
70421;SHT31;57848;51.938;15.520;2023-10-19T14:48:09;8.07;94.27
70421;SHT31;57848;51.938;15.520;2023-10-19T14:50:36;8.15;94.21
70421;SHT31;57848;51.938;15.520;2023-10-19T14:53:03;8.19;94.28
70421;SHT31;57848;51.938;15.520;2023-10-19T14:55:29;8.15;94.23
70421;SHT31;57848;51.938;15.520;2023-10-19T14:57:55;8.19;94.13
70421;SHT31;57848;51.938;15.520;2023-10-19T15:00:24;8.19;94.18
70421;SHT31;57848;51.938;15.520;2023-10-19T15:03:01;8.10;94.29
70421;SHT31;57848;51.938;15.520;2023-10-19T15:05:28;8.16;94.44
70421;SHT31;57848;51.938;15.520;2023-10-19T15:07:53;8.19;94.28
70421;SHT31;57848;51.938;15.520;2023-10-19T15:10:23;8.15;94.41
70421;SHT31;57848;51.938;15.520;2023-10-19T15:12:48;8.15;94.41
70421;SHT31;57848;51.938;15.520;2023-10-19T15:15:14;8.22;94.39
70421;SHT31;57848;51.938;15.520;2023-10-19T15:17:43;8.15;94.46
70421;SHT31;57848;51.938;15.520;2023-10-19T15:20:10;8.16;94.51
70421;SHT31;57848;51.938;15.520;2023-10-19T15:22:39;8.07;94.90
70421;SHT31;57848;51.938;15.520;2023-10-19T15:25:05;8.06;94.92
70421;SHT31;57848;51.938;15.520;2023-10-19T15:27:33;8.06;94.91
70421;SHT31;57848;51.938;15.520;2023-10-19T15:29:59;8.07;94.84
70421;SHT31;57848;51.938;15.520;2023-10-19T15:32:24;8.07;94.92
70421;SHT31;57848;51.938;15.520;2023-10-19T15:34:50;8.12;94.92
70421;SHT31;57848;51.938;15.520;2023-10-19T15:37:16;8.19;94.80
70421;SHT31;57848;51.938;15.520;2023-10-19T15:39:42;8.12;94.79
70421;SHT31;57848;51.938;15.520;2023-10-19T15:42:09;8.25;94.75
70421;SHT31;57848;51.938;15.520;2023-10-19T15:44:35;8.28;94.33
70421;SHT31;57848;51.938;15.520;2023-10-19T15:47:01;8.22;94.52
70421;SHT31;57848;51.938;15.520;2023-10-19T15:49:26;8.21;94.61